FABL

Details ICAO FABL (BFN)
Name Bloemfontein
Region South Africa
Timezone Africa/Johannesburg (UTC+2.0)
Plans Departing 28
Arriving 47
Stats Elevation 4,458 ft / 1,359 m (AMSL)
Location -29.092556° 26.299422°
Runways 2
Magnetic Variation 22.455° W
Sunrise 2017-12-12 03:10:47 UTC / 2017-12-12 05:10:47 Local
Sunset 2017-12-12 17:09:05 UTC / 2017-12-12 19:09:05 Local
Advertisement - Login to hide

Runways

ID Width Length Bearing (true) Bearing (mag) Surface Threshold Offset Overrun Length
02 151 ft / 46 m 8,404 ft / 2,562 m 0.00° 22.46° Asphalt 0 ft / 0 m 0 ft / 0 m
12 151 ft / 46 m 7,207 ft / 2,197 m 101.01° 123.47° Asphalt 0 ft / 0 m 0 ft / 0 m
20 151 ft / 46 m 8,404 ft / 2,562 m 180.00° 202.46° Asphalt 0 ft / 0 m 0 ft / 0 m
30 151 ft / 46 m 7,207 ft / 2,197 m 280.99° 303.45° Asphalt 0 ft / 0 m 0 ft / 0 m

Map

Weather


0- 5 10 15 20 25 30 35+ Temperature / ° C

Clouds and Precipitation
Forecast for 2017-12-12 06:00 UTC. Updated an hour ago

Ground ~20,000 ft ~40,000 ft Winds

METAR

FABL 120400Z VRB02KT CAVOK 13/06 Q1013 NOSIG

TAF

TAF FABL 112200Z 1200/1224 VRB03KT CAVOK BECMG 1209/1211 30015KT TX31/1212Z TN14/1203Z

Frequencies

Recorded 126.65 MHz ATIS
Approach 124.30 MHz APP
Tower 118.10 MHz TWR
Warning: Do not use this data for real-world aviation or navigation. No guarantee of current accuracy is given.